createdAt,value
2022-11-08T00:00:06.225Z,6.80
2022-11-08T00:02:52.621Z,7.30
2022-11-08T00:05:56.733Z,7.15
2022-11-08T00:09:01.400Z,7.15
2022-11-08T00:12:05.329Z,6.78
2022-11-08T00:14:51.540Z,6.15
2022-11-08T00:17:37.863Z,6.45
2022-11-08T00:20:24.386Z,6.10
2022-11-08T00:23:10.276Z,6.25
2022-11-08T00:25:55.788Z,6.43
2022-11-08T00:28:42.261Z,6.20
2022-11-08T00:31:27.835Z,6.35
2022-11-08T00:34:13.749Z,5.90
2022-11-08T00:36:59.753Z,5.90
2022-11-08T00:39:46.749Z,5.90
2022-11-08T00:42:32.886Z,5.90
2022-11-08T00:45:18.941Z,5.90
2022-11-08T00:48:04.628Z,6.43
2022-11-08T00:50:50.559Z,5.90
2022-11-08T00:53:40.800Z,5.57
2022-11-08T00:56:26.823Z,6.20
2022-11-08T00:59:16.946Z,6.25
2022-11-08T01:02:03.584Z,6.22
2022-11-08T01:04:49.083Z,6.10
2022-11-08T01:07:34.998Z,6.13
2022-11-08T01:10:20.922Z,6.22
2022-11-08T01:13:06.337Z,6.20
2022-11-08T01:15:52.263Z,5.72
2022-11-08T01:18:38.980Z,6.05
2022-11-08T01:21:26.929Z,6.07
2022-11-08T01:24:12.422Z,6.43
2022-11-08T01:26:58.389Z,5.60
2022-11-08T01:29:44.015Z,5.95
2022-11-08T01:32:29.808Z,5.95
2022-11-08T01:35:15.582Z,5.68
2022-11-08T01:38:01.988Z,5.53
2022-11-08T01:40:49.099Z,6.07
2022-11-08T01:43:41.093Z,5.60
2022-11-08T01:46:36.167Z,4.90
2022-11-08T01:49:45.987Z,5.30
2022-11-08T01:52:44.956Z,5.25
2022-11-08T01:55:36.239Z,4.75
2022-11-08T01:58:26.495Z,4.53
2022-11-08T02:01:13.467Z,4.90
2022-11-08T02:04:01.085Z,4.80
2022-11-08T02:06:46.842Z,5.00
2022-11-08T02:09:35.399Z,5.10
2022-11-08T02:12:22.783Z,4.65
2022-11-08T02:15:10.190Z,4.90
2022-11-08T02:17:55.967Z,5.05
2022-11-08T02:21:07.381Z,4.95
2022-11-08T02:23:59.449Z,5.32
2022-11-08T02:26:46.843Z,5.15
2022-11-08T02:29:36.504Z,5.13
2022-11-08T02:32:23.355Z,5.13
2022-11-08T02:35:17.759Z,5.32
2022-11-08T02:38:03.977Z,5.80
2022-11-08T02:40:52.745Z,5.95
2022-11-08T02:43:38.114Z,5.90
2022-11-08T02:46:23.916Z,6.93
2022-11-08T02:49:09.815Z,6.38
2022-11-08T02:51:56.273Z,7.05
2022-11-08T02:54:42.592Z,5.78
2022-11-08T02:57:28.327Z,6.65
2022-11-08T03:00:14.674Z,6.82
2022-11-08T03:03:00.293Z,7.22
2022-11-08T03:05:47.506Z,7.65
2022-11-08T03:08:33.796Z,7.95
2022-11-08T03:11:19.329Z,7.65
2022-11-08T03:14:05.184Z,7.38
2022-11-08T03:16:50.969Z,7.45
2022-11-08T03:19:36.365Z,7.85
2022-11-08T03:22:21.992Z,8.40
2022-11-08T03:25:07.978Z,8.10
2022-11-08T03:27:53.964Z,8.30
2022-11-08T03:30:40.668Z,8.10
2022-11-08T03:33:26.439Z,8.85
2022-11-08T03:36:12.427Z,8.70
2022-11-08T03:38:58.239Z,8.85
2022-11-08T03:41:44.039Z,9.35
2022-11-08T03:44:30.984Z,9.18
2022-11-08T03:47:16.680Z,9.27
2022-11-08T03:50:02.017Z,9.05
2022-11-08T03:52:50.692Z,9.80
2022-11-08T03:55:36.333Z,10.03
2022-11-08T03:58:21.834Z,10.10
2022-11-08T04:01:07.599Z,9.32
2022-11-08T04:03:53.925Z,9.98
2022-11-08T04:06:40.088Z,9.57
2022-11-08T04:09:25.981Z,9.65
2022-11-08T04:12:34.748Z,9.93
2022-11-08T04:15:22.492Z,9.82
2022-11-08T04:18:27.432Z,9.82
2022-11-08T04:21:22.311Z,9.75
2022-11-08T04:24:09.066Z,9.35
2022-11-08T04:26:54.736Z,10.32
2022-11-08T04:29:40.728Z,9.60
2022-11-08T04:32:26.872Z,9.57
2022-11-08T04:35:13.168Z,9.45
2022-11-08T04:38:00.948Z,9.52
2022-11-08T04:40:47.287Z,9.98
2022-11-08T04:43:34.272Z,8.77
2022-11-08T04:46:26.453Z,9.00
2022-11-08T04:49:12.115Z,8.90
2022-11-08T04:51:57.553Z,9.20
2022-11-08T04:54:46.484Z,9.02
2022-11-08T04:57:32.612Z,8.85
2022-11-08T05:00:18.987Z,9.30
2022-11-08T05:03:05.415Z,8.82
2022-11-08T05:05:51.668Z,9.25
2022-11-08T05:08:37.871Z,9.38
2022-11-08T05:11:25.151Z,9.27
2022-11-08T05:14:10.501Z,8.68
2022-11-08T05:16:56.557Z,9.27
2022-11-08T05:20:00.571Z,9.50
2022-11-08T05:23:05.415Z,8.90
2022-11-08T05:25:53.059Z,9.57
2022-11-08T05:28:40.439Z,8.88
2022-11-08T05:31:26.772Z,9.65
2022-11-08T05:34:12.820Z,8.80
2022-11-08T05:36:58.546Z,8.55
2022-11-08T05:39:44.543Z,9.00
2022-11-08T05:42:30.444Z,8.80
2022-11-08T05:45:16.680Z,8.98
2022-11-08T05:48:06.556Z,8.77
2022-11-08T05:50:52.889Z,9.27
2022-11-08T05:53:42.517Z,10.35
2022-11-08T05:56:28.508Z,9.80
2022-11-08T05:59:14.850Z,9.57
2022-11-08T06:02:01.607Z,8.95
2022-11-08T06:04:47.376Z,9.23
2022-11-08T06:07:32.817Z,8.77
2022-11-08T06:10:18.597Z,9.48
2022-11-08T06:13:04.425Z,9.17
2022-11-08T06:15:50.268Z,9.20
2022-11-08T06:18:36.452Z,9.18
2022-11-08T06:21:22.755Z,9.73
2022-11-08T06:24:09.130Z,9.65
2022-11-08T06:26:54.676Z,9.27
2022-11-08T06:29:42.353Z,9.48
2022-11-08T06:32:28.019Z,9.27
2022-11-08T06:35:14.431Z,9.15
2022-11-08T06:38:05.665Z,9.10
2022-11-08T06:40:54.856Z,9.40
2022-11-08T06:43:40.417Z,9.50
2022-11-08T06:46:26.181Z,9.50
2022-11-08T06:49:12.730Z,9.57
2022-11-08T06:51:59.045Z,8.88
2022-11-08T06:54:44.591Z,8.93
2022-11-08T06:57:30.147Z,9.25
2022-11-08T07:00:17.197Z,9.35
2022-11-08T07:03:04.239Z,8.80
2022-11-08T07:05:50.220Z,9.57
2022-11-08T07:08:36.333Z,9.38
2022-11-08T07:11:22.375Z,8.57
2022-11-08T07:14:07.892Z,9.23
2022-11-08T07:16:53.292Z,9.18
2022-11-08T07:19:39.225Z,9.63
2022-11-08T07:22:25.935Z,9.75
2022-11-08T07:25:11.965Z,9.57
2022-11-08T07:27:59.902Z,9.32
2022-11-08T07:30:47.804Z,9.25
2022-11-08T07:33:33.753Z,9.87
2022-11-08T07:36:19.185Z,9.68
2022-11-08T07:39:06.779Z,9.88
2022-11-08T07:41:52.772Z,9.10
2022-11-08T07:44:38.356Z,9.15
2022-11-08T07:47:23.767Z,9.55
2022-11-08T07:50:10.608Z,9.75
2022-11-08T07:52:56.792Z,9.02
2022-11-08T07:55:42.802Z,9.45
2022-11-08T07:58:28.248Z,8.73
2022-11-08T08:01:15.452Z,8.52
2022-11-08T08:04:01.485Z,8.77
2022-11-08T08:06:47.741Z,9.20
2022-11-08T08:09:36.696Z,9.90
2022-11-08T08:12:23.134Z,9.13
2022-11-08T08:15:10.284Z,9.23
2022-11-08T08:17:56.146Z,9.52
2022-11-08T08:20:41.980Z,10.32
2022-11-08T08:23:28.085Z,10.20
2022-11-08T08:26:14.564Z,9.60
2022-11-08T08:29:00.103Z,9.40
2022-11-08T08:31:45.976Z,8.82
2022-11-08T08:34:31.894Z,8.52
2022-11-08T08:37:17.503Z,8.90
2022-11-08T08:40:03.867Z,9.63
2022-11-08T08:42:59.540Z,8.90
2022-11-08T08:45:45.398Z,8.70
2022-11-08T08:48:31.896Z,9.07
2022-11-08T08:51:18.139Z,9.18
2022-11-08T08:54:03.998Z,8.93
2022-11-08T08:56:49.957Z,9.40
2022-11-08T09:02:42.925Z,9.20
2022-11-08T09:05:28.969Z,8.20
2022-11-08T09:08:15.130Z,9.23
2022-11-08T09:11:02.074Z,8.65
2022-11-08T09:13:48.272Z,9.30
2022-11-08T09:16:34.296Z,9.13
2022-11-08T09:19:20.556Z,8.70
2022-11-08T09:22:06.368Z,9.15
2022-11-08T09:24:52.874Z,8.85
2022-11-08T09:27:38.560Z,9.27
2022-11-08T09:30:24.307Z,9.07
2022-11-08T09:33:10.775Z,9.57
2022-11-08T09:35:58.440Z,8.98
2022-11-08T09:38:44.784Z,9.10
2022-11-08T09:41:39.525Z,9.07
2022-11-08T09:45:03.157Z,8.98
2022-11-08T09:47:55.875Z,8.93
2022-11-08T09:50:46.403Z,8.75
2022-11-08T09:53:47.742Z,9.65
2022-11-08T09:56:38.177Z,8.55
2022-11-08T09:59:42.791Z,9.63
2022-11-08T10:02:28.732Z,8.93
2022-11-08T10:05:17.868Z,8.73
2022-11-08T10:08:38.921Z,8.90
2022-11-08T10:11:30.677Z,8.50
2022-11-08T10:14:18.996Z,8.65
2022-11-08T10:17:25.026Z,8.50
2022-11-08T10:20:37.854Z,8.50
2022-11-08T10:23:36.683Z,8.65
2022-11-08T10:26:33.672Z,9.20
2022-11-08T10:29:43.426Z,9.43
2022-11-08T10:32:31.011Z,9.30
2022-11-08T10:35:41.848Z,8.60
2022-11-08T10:38:46.839Z,8.43
2022-11-08T10:41:44.661Z,8.02
2022-11-08T10:44:30.696Z,7.60
2022-11-08T10:47:28.913Z,8.10
2022-11-08T10:50:20.150Z,7.95
2022-11-08T10:53:11.924Z,8.02
2022-11-08T10:56:06.976Z,7.70
2022-11-08T10:58:52.532Z,7.63
2022-11-08T11:01:50.015Z,7.50
2022-11-08T11:04:35.709Z,7.38
2022-11-08T11:07:35.288Z,7.85
2022-11-08T11:10:28.951Z,7.40
2022-11-08T11:13:23.844Z,6.40
2022-11-08T11:16:14.554Z,7.60
2022-11-08T11:19:03.514Z,7.88
2022-11-08T11:22:08.805Z,7.32
2022-11-08T11:24:56.383Z,7.63
2022-11-08T11:27:43.357Z,7.32
2022-11-08T11:30:31.853Z,7.20
2022-11-08T11:33:26.412Z,7.47
2022-11-08T11:36:22.974Z,7.35
2022-11-08T11:39:16.240Z,7.30
2022-11-08T11:42:39.092Z,6.83
2022-11-08T11:45:24.472Z,7.47
2022-11-08T11:48:24.825Z,6.95
2022-11-08T11:51:11.632Z,6.53
2022-11-08T11:53:58.223Z,7.07
2022-11-08T11:56:55.649Z,6.72
2022-11-08T11:59:47.364Z,7.00
2022-11-08T12:03:09.521Z,7.22
2022-11-08T12:06:13.979Z,6.28
2022-11-08T12:09:32.612Z,6.88
2022-11-08T12:12:36.138Z,6.72
2022-11-08T12:15:46.483Z,7.10
2022-11-08T12:19:00.325Z,7.20
2022-11-08T12:22:04.757Z,6.65
2022-11-08T12:24:57.308Z,6.40
2022-11-08T12:27:49.871Z,6.13
2022-11-08T12:30:47.869Z,6.63
2022-11-08T12:33:48.521Z,6.35
2022-11-08T12:36:45.634Z,6.45
2022-11-08T12:39:53.986Z,6.72
2022-11-08T12:42:56.313Z,6.80
2022-11-08T12:46:00.652Z,6.20
2022-11-08T12:49:05.810Z,5.80
2022-11-08T12:52:11.935Z,5.70
2022-11-08T12:55:04.907Z,5.93
2022-11-08T12:57:57.431Z,6.20
2022-11-08T13:00:45.269Z,5.40
2022-11-08T13:03:44.068Z,6.00
2022-11-08T13:06:37.383Z,5.72
2022-11-08T13:09:37.783Z,5.40
2022-11-08T13:12:58.904Z,5.82
2022-11-08T13:16:15.350Z,5.25
2022-11-08T13:19:04.355Z,5.80
2022-11-08T13:21:51.765Z,6.20
2022-11-08T13:24:45.453Z,6.28
2022-11-08T13:27:49.982Z,5.45
2022-11-08T13:30:38.955Z,5.47
2022-11-08T13:33:30.474Z,5.40
2022-11-08T13:37:11.309Z,5.50
2022-11-08T13:40:12.951Z,5.93
2022-11-08T13:43:28.563Z,5.60
2022-11-08T13:46:20.168Z,5.55
2022-11-08T13:49:22.477Z,5.47
2022-11-08T13:53:01.482Z,5.50
2022-11-08T13:55:53.492Z,4.70
2022-11-08T13:58:41.832Z,5.10
2022-11-08T14:01:38.408Z,5.30
2022-11-08T14:04:38.607Z,5.40
2022-11-08T14:07:35.671Z,5.70
2022-11-08T14:10:48.695Z,5.80
2022-11-08T14:14:00.868Z,5.85
2022-11-08T14:17:09.578Z,5.13
2022-11-08T14:20:07.436Z,5.57
2022-11-08T14:22:53.377Z,4.97
2022-11-08T14:25:40.774Z,5.43
2022-11-08T14:28:28.849Z,5.53
2022-11-08T14:31:41.891Z,5.05
2022-11-08T14:34:36.841Z,5.90
2022-11-08T14:37:27.076Z,5.10
2022-11-08T14:40:31.385Z,4.90
2022-11-08T14:43:20.184Z,5.03
2022-11-08T14:46:15.674Z,5.05
2022-11-08T14:49:18.102Z,5.90
2022-11-08T14:52:07.721Z,5.05
2022-11-08T14:55:11.312Z,4.78
2022-11-08T14:57:56.709Z,5.00
2022-11-08T15:00:44.978Z,4.90
2022-11-08T15:03:32.251Z,5.43
2022-11-08T15:06:18.858Z,5.28
2022-11-08T15:09:05.814Z,5.28
2022-11-08T15:11:55.663Z,4.82
2022-11-08T15:14:57.498Z,5.20
2022-11-08T15:17:43.895Z,5.22
2022-11-08T15:20:29.763Z,4.80
2022-11-08T15:23:43.876Z,5.03
2022-11-08T15:26:35.193Z,5.10
2022-11-08T15:29:23.602Z,5.63
2022-11-08T15:32:19.089Z,4.80
2022-11-08T15:35:06.893Z,5.50
2022-11-08T15:38:00.238Z,4.93
2022-11-08T15:40:54.085Z,5.03
2022-11-08T15:43:41.477Z,4.97
2022-11-08T15:46:38.064Z,5.32
2022-11-08T15:49:25.982Z,4.40
2022-11-08T15:52:11.915Z,4.85
2022-11-08T15:54:57.542Z,5.03
2022-11-08T15:57:44.712Z,5.33
2022-11-08T16:00:33.736Z,4.93
2022-11-08T16:03:19.652Z,4.97
2022-11-08T16:06:05.714Z,5.25
2022-11-08T16:08:51.260Z,4.90
2022-11-08T16:11:38.552Z,4.78
2022-11-08T16:14:25.168Z,4.70
2022-11-08T16:17:14.047Z,4.80
2022-11-08T16:20:00.017Z,5.20
2022-11-08T16:22:46.101Z,5.30
2022-11-08T16:25:45.841Z,5.50
2022-11-08T16:28:39.798Z,6.15
2022-11-08T16:31:25.440Z,5.80
2022-11-08T16:34:11.474Z,5.28
2022-11-08T16:36:57.803Z,5.28
2022-11-08T16:39:43.932Z,4.90
2022-11-08T16:42:29.751Z,5.35
2022-11-08T16:45:17.578Z,5.70
2022-11-08T16:48:04.848Z,4.68
2022-11-08T16:50:52.016Z,5.10
2022-11-08T16:53:38.023Z,5.25
2022-11-08T16:56:23.983Z,5.18
2022-11-08T16:59:09.987Z,5.38
2022-11-08T17:01:55.974Z,5.30
2022-11-08T17:04:41.647Z,5.00
2022-11-08T17:07:28.651Z,5.90
2022-11-08T17:10:21.814Z,5.25
2022-11-08T17:13:07.963Z,5.25
2022-11-08T17:15:55.142Z,5.43
2022-11-08T17:18:41.213Z,5.47
2022-11-08T17:21:44.272Z,5.60
2022-11-08T17:24:31.066Z,5.40
2022-11-08T17:27:19.748Z,5.80
2022-11-08T17:30:06.329Z,5.82
2022-11-08T17:32:52.107Z,6.15
2022-11-08T17:35:42.574Z,6.07
2022-11-08T17:38:30.153Z,5.72
2022-11-08T17:41:16.196Z,5.47
2022-11-08T17:44:01.650Z,5.37
2022-11-08T17:46:48.101Z,5.10
2022-11-08T17:49:35.961Z,5.80
2022-11-08T17:52:24.286Z,5.80
2022-11-08T17:55:09.944Z,5.67
2022-11-08T17:57:55.632Z,5.60
2022-11-08T18:00:42.153Z,5.80
2022-11-08T18:03:28.303Z,5.30
2022-11-08T18:06:16.394Z,5.30
2022-11-08T18:09:02.862Z,5.37
2022-11-08T18:11:48.629Z,5.53
2022-11-08T18:14:35.720Z,6.20
2022-11-08T18:17:22.263Z,6.07
2022-11-08T18:20:09.151Z,6.03
2022-11-08T18:22:55.623Z,5.85
2022-11-08T18:25:42.689Z,6.10
2022-11-08T18:28:29.475Z,6.30
2022-11-08T18:31:18.132Z,6.10
2022-11-08T18:34:04.127Z,6.35
2022-11-08T18:36:50.509Z,6.15
2022-11-08T18:39:36.004Z,6.10
2022-11-08T18:42:22.102Z,6.15
2022-11-08T18:45:08.519Z,6.00
2022-11-08T18:47:54.359Z,6.40
2022-11-08T18:50:40.707Z,7.20
2022-11-08T18:53:26.656Z,7.15
2022-11-08T18:56:14.133Z,6.80
2022-11-08T18:59:00.869Z,6.07
2022-11-08T19:01:47.058Z,6.28
2022-11-08T19:04:33.155Z,6.18
2022-11-08T19:07:20.117Z,6.43
2022-11-08T19:10:06.472Z,5.90
2022-11-08T19:12:52.659Z,5.43
2022-11-08T19:15:38.541Z,5.53
2022-11-08T19:18:24.717Z,5.78
2022-11-08T19:21:14.628Z,5.85
2022-11-08T19:24:01.031Z,5.38
2022-11-08T19:26:46.667Z,5.32
2022-11-08T19:29:32.565Z,5.22
2022-11-08T19:32:18.599Z,5.13
2022-11-08T19:35:04.896Z,4.93
2022-11-08T19:37:50.815Z,5.18
2022-11-08T19:40:41.477Z,5.27
2022-11-08T19:43:27.541Z,5.45
2022-11-08T19:46:23.930Z,5.15
2022-11-08T19:49:10.041Z,4.47
2022-11-08T19:51:55.803Z,4.43
2022-11-08T19:54:41.787Z,4.75
2022-11-08T19:57:29.663Z,4.70
2022-11-08T20:00:17.696Z,5.05
2022-11-08T20:03:03.613Z,5.45
2022-11-08T20:05:54.009Z,5.10
2022-11-08T20:08:40.548Z,5.47
2022-11-08T20:11:29.720Z,5.40
2022-11-08T20:14:15.509Z,5.20
2022-11-08T20:17:01.228Z,6.78
2022-11-08T20:19:47.451Z,5.53
2022-11-08T20:22:33.701Z,4.70
2022-11-08T20:25:19.541Z,5.00
2022-11-08T20:28:05.737Z,4.95
2022-11-08T20:30:52.367Z,5.13
2022-11-08T20:33:39.774Z,4.95
2022-11-08T20:36:26.051Z,4.90
2022-11-08T20:39:14.079Z,5.65
2022-11-08T20:42:01.002Z,5.35
2022-11-08T20:44:47.058Z,5.47
2022-11-08T20:47:35.916Z,5.18
2022-11-08T20:50:22.013Z,4.47
2022-11-08T20:53:07.966Z,4.77
2022-11-08T20:56:02.941Z,4.55
2022-11-08T20:58:50.998Z,4.20
2022-11-08T21:01:37.987Z,4.40
2022-11-08T21:04:23.972Z,4.72
2022-11-08T21:10:43.609Z,4.53
2022-11-08T21:13:27.137Z,4.20
2022-11-08T21:16:29.164Z,4.38
2022-11-08T21:19:16.957Z,4.30
2022-11-08T21:22:15.462Z,4.40
2022-11-08T21:25:01.656Z,4.53
2022-11-08T21:27:47.750Z,4.72
2022-11-08T21:30:34.100Z,4.20
2022-11-08T21:33:20.136Z,4.32
2022-11-08T21:36:10.773Z,4.07
2022-11-08T21:38:57.212Z,4.60
2022-11-08T21:41:43.801Z,4.22
2022-11-08T21:44:29.143Z,4.40
2022-11-08T21:47:15.049Z,4.22
2022-11-08T21:50:01.026Z,4.28
2022-11-08T21:52:47.285Z,4.45
2022-11-08T21:55:34.018Z,4.63
2022-11-08T21:58:20.517Z,4.43
2022-11-08T22:01:07.687Z,4.30
2022-11-08T22:03:55.024Z,4.05
2022-11-08T22:06:46.417Z,3.85
2022-11-08T22:09:33.734Z,4.10
2022-11-08T22:12:19.385Z,4.32
2022-11-08T22:15:06.316Z,4.20
2022-11-08T22:21:16.833Z,3.80
2022-11-08T22:24:02.578Z,3.92
2022-11-08T22:26:49.803Z,4.60
2022-11-08T22:29:35.987Z,4.45
2022-11-08T22:32:22.179Z,4.45
2022-11-08T22:35:08.783Z,4.68
2022-11-08T22:37:54.440Z,4.55
2022-11-08T22:40:44.317Z,4.20
2022-11-08T22:43:29.796Z,4.05
2022-11-08T22:46:16.983Z,3.85
2022-11-08T22:49:03.859Z,4.15
2022-11-08T22:51:49.670Z,3.97
2022-11-08T22:54:35.164Z,4.65
2022-11-08T22:57:20.668Z,4.63
2022-11-08T23:00:10.015Z,4.22
2022-11-08T23:02:56.882Z,4.20
2022-11-08T23:05:48.008Z,4.20
2022-11-08T23:08:33.844Z,3.88
2022-11-08T23:11:37.901Z,4.20
2022-11-08T23:14:43.617Z,4.63
2022-11-08T23:17:29.085Z,3.97
2022-11-08T23:20:33.404Z,4.20
2022-11-08T23:23:37.461Z,4.40
2022-11-08T23:26:43.106Z,4.05
2022-11-08T23:29:47.774Z,4.28
2022-11-08T23:32:34.698Z,4.00
2022-11-08T23:35:21.805Z,4.30
2022-11-08T23:38:07.958Z,4.30
2022-11-08T23:41:12.612Z,4.05
2022-11-08T23:44:17.264Z,3.60
2022-11-08T23:47:03.237Z,4.03
2022-11-08T23:49:48.680Z,3.78
2022-11-08T23:52:34.627Z,4.07
2022-11-08T23:55:20.373Z,4.28
2022-11-08T23:58:05.780Z,3.70
